createdAt,value
2022-09-15T00:00:23.812Z,12.91
2022-09-15T00:01:23.855Z,12.89
2022-09-15T00:02:23.953Z,12.99
2022-09-15T00:03:23.779Z,12.96
2022-09-15T00:04:23.784Z,13.03
2022-09-15T00:05:23.757Z,13.04
2022-09-15T00:06:23.745Z,12.99
2022-09-15T00:07:23.735Z,13.04
2022-09-15T00:08:23.796Z,12.96
2022-09-15T00:09:23.718Z,13.10
2022-09-15T00:10:23.712Z,13.10
2022-09-15T00:11:23.687Z,13.09
2022-09-15T00:12:23.682Z,13.10
2022-09-15T00:13:23.786Z,13.03
2022-09-15T00:14:23.734Z,13.10
2022-09-15T00:15:23.656Z,13.17
2022-09-15T00:16:23.701Z,13.12
2022-09-15T00:17:23.624Z,13.01
2022-09-15T00:18:23.623Z,13.04
2022-09-15T00:19:23.609Z,13.03
2022-09-15T00:20:23.653Z,13.14
2022-09-15T00:21:23.581Z,13.07
2022-09-15T00:22:23.572Z,13.09
2022-09-15T00:23:23.561Z,13.04
2022-09-15T00:24:23.559Z,13.10
2022-09-15T00:25:23.539Z,13.10
2022-09-15T00:26:23.589Z,12.98
2022-09-15T00:27:23.517Z,13.13
2022-09-15T00:28:23.505Z,13.07
2022-09-15T00:29:23.589Z,13.03
2022-09-15T00:30:23.493Z,13.01
2022-09-15T00:31:23.541Z,13.03
2022-09-15T00:32:23.529Z,13.09
2022-09-15T00:33:23.449Z,13.09
2022-09-15T00:34:23.440Z,13.03
2022-09-15T00:35:23.428Z,13.14
2022-09-15T00:36:23.421Z,13.16
2022-09-15T00:37:23.405Z,13.16
2022-09-15T00:38:23.476Z,13.10
2022-09-15T00:39:23.385Z,13.07
2022-09-15T00:40:23.449Z,13.10
2022-09-15T00:41:23.363Z,13.07
2022-09-15T00:42:23.351Z,13.14
2022-09-15T00:43:23.340Z,13.06
2022-09-15T00:44:23.356Z,13.07
2022-09-15T00:45:23.500Z,12.99
2022-09-15T00:46:23.307Z,13.03
2022-09-15T00:47:23.305Z,13.09
2022-09-15T00:48:23.289Z,12.99
2022-09-15T00:49:23.274Z,12.94
2022-09-15T00:50:23.317Z,13.04
2022-09-15T00:51:23.253Z,12.92
2022-09-15T00:52:23.255Z,12.95
2022-09-15T00:53:23.232Z,12.94
2022-09-15T00:54:23.221Z,12.92
2022-09-15T00:55:23.214Z,12.95
2022-09-15T00:56:23.252Z,12.89
2022-09-15T00:57:23.185Z,12.84
2022-09-15T00:58:23.180Z,12.73
2022-09-15T00:59:23.166Z,12.79
2022-09-15T01:00:23.169Z,12.76
2022-09-15T01:01:23.232Z,12.87
2022-09-15T01:02:23.245Z,12.84
2022-09-15T01:03:23.121Z,12.66
2022-09-15T01:04:23.112Z,12.67
2022-09-15T01:05:23.100Z,12.52
2022-09-15T01:06:23.191Z,12.61
2022-09-15T01:07:23.075Z,12.67
2022-09-15T01:08:23.120Z,12.73
2022-09-15T01:09:23.053Z,12.67
2022-09-15T01:10:23.050Z,12.55
2022-09-15T01:11:23.036Z,12.55
2022-09-15T01:12:23.031Z,12.67
2022-09-15T01:13:23.011Z,12.52
2022-09-15T01:14:23.007Z,12.55
2022-09-15T01:15:23.006Z,12.56
2022-09-15T01:16:23.022Z,12.58
2022-09-15T01:17:22.993Z,12.56
2022-09-15T01:18:22.959Z,12.56
2022-09-15T01:19:22.949Z,12.61
2022-09-15T01:20:22.935Z,12.58
2022-09-15T01:21:22.936Z,12.56
2022-09-15T01:22:22.916Z,12.58
2022-09-15T01:23:22.903Z,12.56
2022-09-15T01:24:22.892Z,12.55
2022-09-15T01:25:22.883Z,12.62
2022-09-15T01:26:22.918Z,12.55
2022-09-15T01:27:40.984Z,12.56
2022-09-15T01:28:23.847Z,12.56
2022-09-15T01:29:22.840Z,12.54
2022-09-15T01:30:22.825Z,12.61
2022-09-15T01:31:22.894Z,12.52
2022-09-15T01:32:22.913Z,12.54
2022-09-15T01:33:22.850Z,12.44
2022-09-15T01:34:22.785Z,12.48
2022-09-15T01:35:22.774Z,12.43
2022-09-15T01:36:22.760Z,12.44
2022-09-15T01:37:22.758Z,12.52
2022-09-15T01:38:22.883Z,12.44
2022-09-15T01:39:22.731Z,12.49
2022-09-15T01:40:22.814Z,12.40
2022-09-15T01:41:22.720Z,12.40
2022-09-15T01:42:22.720Z,12.38
2022-09-15T01:43:22.687Z,12.43
2022-09-15T01:44:22.757Z,12.51
2022-09-15T01:45:22.719Z,12.40
2022-09-15T01:46:22.685Z,12.40
2022-09-15T01:47:22.636Z,12.38
2022-09-15T01:48:22.640Z,12.40
2022-09-15T01:49:22.641Z,12.30
2022-09-15T01:50:22.635Z,12.36
2022-09-15T01:51:22.593Z,12.36
2022-09-15T01:52:22.591Z,12.38
2022-09-15T01:53:22.686Z,12.40
2022-09-15T01:54:22.566Z,12.33
2022-09-15T01:55:22.557Z,12.40
2022-09-15T01:56:22.543Z,12.43
2022-09-15T01:57:22.588Z,12.33
2022-09-15T01:58:22.517Z,12.33
2022-09-15T01:59:22.621Z,12.34
2022-09-15T02:00:22.500Z,12.40
2022-09-15T02:01:22.616Z,12.41
2022-09-15T02:02:22.533Z,12.37
2022-09-15T02:03:22.534Z,12.40
2022-09-15T02:04:22.458Z,12.40
2022-09-15T02:05:22.477Z,12.26
2022-09-15T02:06:22.445Z,12.40
2022-09-15T02:07:22.423Z,12.43
2022-09-15T02:08:22.412Z,12.43
2022-09-15T02:09:22.496Z,12.44
2022-09-15T02:10:22.392Z,12.41
2022-09-15T02:11:22.380Z,12.43
2022-09-15T02:12:22.377Z,12.38
2022-09-15T02:13:22.353Z,12.36
2022-09-15T02:14:22.375Z,12.21
2022-09-15T02:15:22.387Z,12.30
2022-09-15T02:16:22.372Z,12.29
2022-09-15T02:17:22.311Z,12.26
2022-09-15T02:18:22.299Z,12.23
2022-09-15T02:19:22.299Z,12.29
2022-09-15T02:20:22.289Z,12.25
2022-09-15T02:21:22.327Z,12.37
2022-09-15T02:22:22.263Z,12.38
2022-09-15T02:23:22.256Z,12.30
2022-09-15T02:24:22.237Z,12.36
2022-09-15T02:25:22.227Z,12.36
2022-09-15T02:26:22.233Z,12.31
2022-09-15T02:27:22.206Z,12.40
2022-09-15T02:28:22.277Z,12.26
2022-09-15T02:29:22.186Z,12.25
2022-09-15T02:30:22.172Z,12.30
2022-09-15T02:31:22.279Z,12.30
2022-09-15T02:32:22.155Z,12.30
2022-09-15T02:33:22.192Z,12.43
2022-09-15T02:34:22.201Z,12.33
2022-09-15T02:35:22.119Z,12.33
2022-09-15T02:36:22.104Z,12.29
2022-09-15T02:37:22.183Z,12.38
2022-09-15T02:38:22.086Z,12.38
2022-09-15T02:39:22.072Z,12.38
2022-09-15T02:40:22.194Z,12.43
2022-09-15T02:41:22.078Z,12.41
2022-09-15T02:42:22.037Z,12.40
2022-09-15T02:43:22.036Z,12.36
2022-09-15T02:44:22.014Z,12.33
2022-09-15T02:45:22.115Z,12.38
2022-09-15T02:46:22.057Z,12.26
2022-09-15T02:47:22.000Z,12.37
2022-09-15T02:48:21.990Z,12.30
2022-09-15T02:49:21.973Z,12.34
2022-09-15T02:50:21.958Z,12.34
2022-09-15T02:51:21.947Z,12.22
2022-09-15T02:52:21.932Z,12.30
2022-09-15T02:53:21.942Z,12.36
2022-09-15T02:54:21.924Z,12.33
2022-09-15T02:55:21.897Z,12.36
2022-09-15T02:56:21.888Z,12.33
2022-09-15T02:57:21.875Z,12.23
2022-09-15T02:58:21.868Z,12.26
2022-09-15T02:59:21.861Z,12.33
2022-09-15T03:00:21.858Z,12.30
2022-09-15T03:01:21.900Z,12.26
2022-09-15T03:02:21.864Z,12.18
2022-09-15T03:03:21.820Z,12.25
2022-09-15T03:04:21.865Z,12.25
2022-09-15T03:05:22.084Z,12.36
2022-09-15T03:06:21.775Z,12.19
2022-09-15T03:07:21.769Z,12.30
2022-09-15T03:08:21.768Z,12.29
2022-09-15T03:09:21.775Z,12.11
2022-09-15T03:10:21.794Z,12.25
2022-09-15T03:11:21.741Z,12.25
2022-09-15T03:12:21.711Z,12.25
2022-09-15T03:13:21.701Z,12.23
2022-09-15T03:14:21.695Z,12.19
2022-09-15T03:15:21.677Z,12.30
2022-09-15T03:16:21.807Z,12.19
2022-09-15T03:17:21.667Z,12.19
2022-09-15T03:18:21.646Z,12.25
2022-09-15T03:19:21.637Z,12.21
2022-09-15T03:20:21.624Z,12.19
2022-09-15T03:21:21.616Z,12.22
2022-09-15T03:22:21.661Z,12.16
2022-09-15T03:23:21.600Z,12.22
2022-09-15T03:24:21.583Z,12.15
2022-09-15T03:25:21.593Z,12.23
2022-09-15T03:26:21.561Z,12.22
2022-09-15T03:27:21.564Z,12.22
2022-09-15T03:28:21.556Z,12.26
2022-09-15T03:29:21.521Z,12.30
2022-09-15T03:30:21.514Z,12.22
2022-09-15T03:31:21.596Z,12.21
2022-09-15T03:32:21.492Z,12.21
2022-09-15T03:33:21.498Z,12.22
2022-09-15T03:34:21.571Z,12.22
2022-09-15T03:35:21.458Z,12.30
2022-09-15T03:36:21.452Z,12.23
2022-09-15T03:37:21.439Z,12.29
2022-09-15T03:38:21.430Z,12.22
2022-09-15T03:39:21.436Z,12.26
2022-09-15T03:40:21.511Z,12.29
2022-09-15T03:41:21.451Z,12.22
2022-09-15T03:42:21.383Z,12.26
2022-09-15T03:43:21.376Z,12.19
2022-09-15T03:44:21.361Z,12.19
2022-09-15T03:45:21.465Z,12.29
2022-09-15T03:46:21.388Z,12.26
2022-09-15T03:47:21.324Z,12.21
2022-09-15T03:48:21.326Z,12.21
2022-09-15T03:49:21.305Z,12.23
2022-09-15T03:50:21.295Z,12.25
2022-09-15T03:51:21.304Z,12.22
2022-09-15T03:52:21.349Z,12.15
2022-09-15T03:53:21.264Z,12.25
2022-09-15T03:54:21.256Z,12.19
2022-09-15T03:55:21.252Z,12.19
2022-09-15T03:56:21.360Z,12.22
2022-09-15T03:57:21.251Z,12.21
2022-09-15T03:58:21.273Z,12.30
2022-09-15T03:59:21.195Z,12.22
2022-09-15T04:00:21.185Z,12.31
2022-09-15T04:01:21.304Z,12.33
2022-09-15T04:02:21.304Z,12.22
2022-09-15T04:03:21.167Z,12.22
2022-09-15T04:04:21.141Z,12.29
2022-09-15T04:05:21.135Z,12.30
2022-09-15T04:06:21.146Z,12.22
2022-09-15T04:07:21.134Z,12.26
2022-09-15T04:08:21.114Z,12.25
2022-09-15T04:09:21.092Z,12.21
2022-09-15T04:10:21.136Z,12.19
2022-09-15T04:11:21.069Z,12.29
2022-09-15T04:12:21.063Z,12.15
2022-09-15T04:13:23.418Z,12.23
2022-09-15T04:14:21.031Z,12.26
2022-09-15T04:15:21.023Z,12.31
2022-09-15T04:16:21.142Z,12.26
2022-09-15T04:17:21.004Z,12.30
2022-09-15T04:18:20.990Z,12.31
2022-09-15T04:19:20.979Z,12.22
2022-09-15T04:20:20.975Z,12.19
2022-09-15T04:21:21.011Z,12.19
2022-09-15T04:22:20.949Z,12.31
2022-09-15T04:23:20.943Z,12.23
2022-09-15T04:24:20.922Z,12.23
2022-09-15T04:25:20.913Z,12.26
2022-09-15T04:26:20.907Z,12.25
2022-09-15T04:27:20.899Z,12.30
2022-09-15T04:28:20.895Z,12.25
2022-09-15T04:29:20.957Z,12.23
2022-09-15T04:30:20.856Z,12.21
2022-09-15T04:31:20.972Z,12.25
2022-09-15T04:32:20.851Z,12.30
2022-09-15T04:33:20.826Z,12.31
2022-09-15T04:34:20.816Z,12.33
2022-09-15T04:35:20.857Z,12.37
2022-09-15T04:36:20.792Z,12.29
2022-09-15T04:37:20.841Z,12.33
2022-09-15T04:38:20.789Z,12.30
2022-09-15T04:39:20.829Z,12.25
2022-09-15T04:40:20.846Z,12.30
2022-09-15T04:41:20.794Z,12.23
2022-09-15T04:42:20.732Z,12.26
2022-09-15T04:43:20.739Z,12.21
2022-09-15T04:44:20.716Z,12.19
2022-09-15T04:45:20.753Z,12.23
2022-09-15T04:46:20.815Z,12.15
2022-09-15T04:47:20.672Z,12.19
2022-09-15T04:48:20.666Z,12.21
2022-09-15T04:49:20.654Z,12.19
2022-09-15T04:50:20.774Z,12.23
2022-09-15T04:51:20.629Z,12.07
2022-09-15T04:52:20.644Z,12.26
2022-09-15T04:53:20.609Z,12.26
2022-09-15T04:54:20.595Z,12.30
2022-09-15T04:55:20.584Z,12.26
2022-09-15T04:56:20.584Z,12.08
2022-09-15T04:57:20.569Z,12.22
2022-09-15T04:58:20.553Z,12.25
2022-09-15T04:59:20.544Z,12.13
2022-09-15T05:00:20.529Z,12.12
2022-09-15T05:01:20.737Z,12.12
2022-09-15T05:02:20.640Z,12.12
2022-09-15T05:03:20.500Z,12.15
2022-09-15T05:04:20.488Z,12.00
2022-09-15T05:05:20.475Z,12.08
2022-09-15T05:06:20.465Z,12.16
2022-09-15T05:07:20.492Z,12.12
2022-09-15T05:08:20.446Z,12.05
2022-09-15T05:09:20.431Z,12.05
2022-09-15T05:10:20.419Z,12.15
2022-09-15T05:11:20.408Z,12.15
2022-09-15T05:12:20.402Z,12.12
2022-09-15T05:13:20.464Z,12.15
2022-09-15T05:14:20.382Z,12.16
2022-09-15T05:15:20.372Z,12.15
2022-09-15T05:16:20.412Z,12.07
2022-09-15T05:17:23.095Z,12.21
2022-09-15T05:18:20.333Z,12.19
2022-09-15T05:19:20.383Z,12.29
2022-09-15T05:20:20.316Z,12.25
2022-09-15T05:21:20.301Z,12.31
2022-09-15T05:22:20.291Z,12.26
2022-09-15T05:23:20.297Z,12.30
2022-09-15T05:24:20.268Z,12.29
2022-09-15T05:25:20.319Z,12.29
2022-09-15T05:26:20.245Z,12.25
2022-09-15T05:27:20.233Z,12.22
2022-09-15T05:28:20.230Z,12.25
2022-09-15T05:29:20.222Z,12.22
2022-09-15T05:30:39.545Z,12.30
2022-09-15T05:31:21.319Z,12.33
2022-09-15T05:32:20.180Z,12.43
2022-09-15T05:33:20.309Z,12.37
2022-09-15T05:34:20.163Z,12.34
2022-09-15T05:35:20.164Z,12.44
2022-09-15T05:36:20.202Z,12.43
2022-09-15T05:37:20.128Z,12.36
2022-09-15T05:38:20.111Z,12.38
2022-09-15T05:39:20.111Z,12.48
2022-09-15T05:40:20.140Z,12.38
2022-09-15T05:41:20.089Z,12.22
2022-09-15T05:42:20.130Z,12.26
2022-09-15T05:43:20.095Z,12.30
2022-09-15T05:44:20.066Z,12.33
2022-09-15T05:45:20.036Z,12.36
2022-09-15T05:46:20.102Z,12.30
2022-09-15T05:47:20.018Z,12.36
2022-09-15T05:48:20.064Z,12.44
2022-09-15T05:49:20.026Z,12.26
2022-09-15T05:50:20.006Z,12.44
2022-09-15T05:51:19.970Z,12.34
2022-09-15T05:52:19.959Z,12.44
2022-09-15T05:53:19.949Z,12.49
2022-09-15T05:54:20.002Z,12.43
2022-09-15T05:55:19.927Z,12.51
2022-09-15T05:56:19.931Z,12.41
2022-09-15T05:57:19.907Z,12.46
2022-09-15T05:58:19.949Z,12.54
2022-09-15T05:59:19.881Z,12.48
2022-09-15T06:00:19.950Z,12.46
2022-09-15T06:01:19.862Z,12.46
2022-09-15T06:02:19.932Z,12.46
2022-09-15T06:03:19.887Z,12.41
2022-09-15T06:04:19.841Z,12.37
2022-09-15T06:05:19.853Z,12.31
2022-09-15T06:06:19.808Z,12.43
2022-09-15T06:07:19.823Z,12.38
2022-09-15T06:08:19.789Z,12.36
2022-09-15T06:09:19.774Z,12.40
2022-09-15T06:10:19.871Z,12.40
2022-09-15T06:11:19.762Z,12.38
2022-09-15T06:12:19.743Z,12.34
2022-09-15T06:13:19.804Z,12.38
2022-09-15T06:14:19.721Z,12.41
2022-09-15T06:15:19.709Z,12.41
2022-09-15T06:16:19.819Z,12.43
2022-09-15T06:17:19.686Z,12.46
2022-09-15T06:18:19.675Z,12.49
2022-09-15T06:19:19.697Z,12.48
2022-09-15T06:20:19.657Z,12.58
2022-09-15T06:21:19.684Z,12.58
2022-09-15T06:22:19.632Z,12.62
2022-09-15T06:23:19.621Z,12.76
2022-09-15T06:24:19.620Z,12.74
2022-09-15T06:25:19.605Z,12.87
2022-09-15T06:26:19.589Z,12.91
2022-09-15T06:27:19.578Z,13.03
2022-09-15T06:28:19.568Z,13.07
2022-09-15T06:29:19.557Z,13.01
2022-09-15T06:30:19.582Z,13.09
2022-09-15T06:31:19.647Z,12.99
2022-09-15T06:32:19.536Z,12.96
2022-09-15T06:33:19.514Z,12.96
2022-09-15T06:34:19.501Z,13.01
2022-09-15T06:35:19.496Z,13.04
2022-09-15T06:36:19.486Z,12.99
2022-09-15T06:37:19.499Z,13.22
2022-09-15T06:38:19.466Z,13.14
2022-09-15T06:39:19.457Z,13.07
2022-09-15T06:40:19.534Z,13.09
2022-09-15T06:41:19.437Z,13.06
2022-09-15T06:42:19.424Z,13.12
2022-09-15T06:43:19.462Z,13.06
2022-09-15T06:44:19.406Z,13.13
2022-09-15T06:45:19.384Z,13.21
2022-09-15T06:46:19.498Z,13.28
2022-09-15T06:47:19.363Z,13.39
2022-09-15T06:48:24.801Z,13.43
2022-09-15T06:49:20.359Z,13.48
2022-09-15T06:50:19.335Z,14.09
2022-09-15T06:51:19.314Z,14.97
2022-09-15T06:52:19.305Z,15.44
2022-09-15T06:53:19.315Z,15.67
2022-09-15T06:54:19.299Z,15.11
2022-09-15T06:55:19.271Z,14.69
2022-09-15T06:56:19.273Z,14.45
2022-09-15T06:57:19.326Z,14.08
2022-09-15T06:58:19.237Z,13.80
2022-09-15T06:59:19.440Z,13.55
2022-09-15T07:00:19.269Z,13.46
2022-09-15T07:01:19.208Z,13.17
2022-09-15T07:02:19.323Z,13.22
2022-09-15T07:03:19.312Z,13.21
2022-09-15T07:04:19.177Z,13.09
2022-09-15T07:05:19.195Z,13.14
2022-09-15T07:06:19.171Z,13.09
2022-09-15T07:07:19.139Z,12.95
2022-09-15T07:08:19.144Z,12.98
2022-09-15T07:09:19.144Z,13.01
2022-09-15T07:10:19.107Z,13.06
2022-09-15T07:11:19.094Z,13.07
2022-09-15T07:12:19.098Z,13.12
2022-09-15T07:13:19.070Z,13.22
2022-09-15T07:14:19.140Z,13.04
2022-09-15T07:15:19.049Z,12.96
2022-09-15T07:16:19.205Z,13.10
2022-09-15T07:17:19.028Z,13.10
2022-09-15T07:18:19.027Z,13.12
2022-09-15T07:19:19.005Z,13.22
2022-09-15T07:20:19.053Z,13.24
2022-09-15T07:21:18.989Z,13.46
2022-09-15T07:22:18.973Z,13.41
2022-09-15T07:23:18.963Z,13.44
2022-09-15T07:24:18.962Z,13.51
2022-09-15T07:25:18.960Z,13.59
2022-09-15T07:26:18.942Z,13.57
2022-09-15T07:27:18.930Z,13.50
2022-09-15T07:28:18.917Z,13.65
2022-09-15T07:29:18.897Z,13.66
2022-09-15T07:30:18.896Z,13.69
2022-09-15T07:31:18.952Z,13.84
2022-09-15T07:32:18.865Z,13.71
2022-09-15T07:33:18.852Z,13.73
2022-09-15T07:34:18.842Z,13.73
2022-09-15T07:35:18.827Z,13.68
2022-09-15T07:36:18.820Z,13.62
2022-09-15T07:37:18.820Z,13.55
2022-09-15T07:38:18.818Z,13.41
2022-09-15T07:39:18.807Z,13.36
2022-09-15T07:40:18.910Z,13.38
2022-09-15T07:41:18.802Z,13.46
2022-09-15T07:42:18.755Z,13.57
2022-09-15T07:43:18.752Z,13.81
2022-09-15T07:44:18.751Z,14.05
2022-09-15T07:45:18.842Z,14.19
2022-09-15T07:46:18.710Z,14.56
2022-09-15T07:47:18.696Z,15.00
2022-09-15T07:48:21.221Z,15.68
2022-09-15T07:49:18.685Z,15.93
2022-09-15T07:50:18.698Z,15.78
2022-09-15T07:51:18.663Z,15.86
2022-09-15T07:52:18.643Z,15.89
2022-09-15T07:53:18.633Z,15.84
2022-09-15T07:54:22.596Z,15.67
2022-09-15T07:55:18.609Z,15.18
2022-09-15T07:56:18.719Z,14.91
2022-09-15T07:57:18.630Z,14.61
2022-09-15T07:58:18.583Z,14.46
2022-09-15T07:59:18.566Z,14.46
2022-09-15T08:00:18.554Z,14.54
2022-09-15T08:01:18.683Z,14.45
2022-09-15T08:02:18.638Z,14.23
2022-09-15T08:03:18.532Z,14.35
2022-09-15T08:04:18.516Z,14.78
2022-09-15T08:05:18.496Z,15.41
2022-09-15T08:06:18.487Z,15.64
2022-09-15T08:07:18.473Z,15.40
2022-09-15T08:08:18.496Z,15.49
2022-09-15T08:09:18.467Z,15.62
2022-09-15T08:10:18.442Z,15.44
2022-09-15T08:11:19.194Z,15.41
2022-09-15T08:12:18.474Z,15.77
2022-09-15T08:13:18.434Z,16.03
2022-09-15T08:14:18.394Z,16.52
2022-09-15T08:15:18.403Z,16.52
2022-09-15T08:16:18.473Z,16.42
2022-09-15T08:17:18.367Z,16.17
2022-09-15T08:18:18.351Z,16.23
2022-09-15T08:19:18.340Z,16.26
2022-09-15T08:20:18.331Z,16.48
2022-09-15T08:21:18.350Z,16.59
2022-09-15T08:22:18.322Z,16.87
2022-09-15T08:23:18.301Z,16.90
2022-09-15T08:24:18.289Z,16.88
2022-09-15T08:25:18.280Z,16.80
2022-09-15T08:26:18.276Z,16.65
2022-09-15T08:27:18.317Z,16.95
2022-09-15T08:28:18.250Z,16.92
2022-09-15T08:29:18.258Z,17.27
2022-09-15T08:30:18.300Z,17.12
2022-09-15T08:31:18.280Z,17.15
2022-09-15T08:32:18.217Z,16.81
2022-09-15T08:33:18.217Z,16.75
2022-09-15T08:34:18.176Z,17.24
2022-09-15T08:35:18.170Z,17.65
2022-09-15T08:36:18.162Z,18.07
2022-09-15T08:37:18.145Z,17.98
2022-09-15T08:38:18.214Z,17.99
2022-09-15T08:39:18.126Z,18.31
2022-09-15T08:40:18.274Z,17.51
2022-09-15T08:41:18.102Z,17.22
2022-09-15T08:42:18.095Z,17.22
2022-09-15T08:43:18.078Z,16.91
2022-09-15T08:44:18.090Z,16.96
2022-09-15T08:45:18.230Z,17.70
2022-09-15T08:46:18.193Z,17.95
2022-09-15T08:47:18.044Z,17.86
2022-09-15T08:48:18.026Z,17.21
2022-09-15T08:49:30.559Z,17.65
2022-09-15T08:50:19.052Z,18.01
2022-09-15T08:51:17.993Z,18.13
2022-09-15T08:52:17.999Z,18.28
2022-09-15T08:53:17.974Z,18.54
2022-09-15T08:54:18.171Z,18.83
2022-09-15T08:55:17.950Z,18.83
2022-09-15T08:56:17.938Z,18.38
2022-09-15T08:57:17.929Z,18.35
2022-09-15T08:58:17.924Z,18.78
2022-09-15T08:59:17.903Z,19.21
2022-09-15T09:00:17.944Z,19.01
2022-09-15T09:01:17.957Z,18.84
2022-09-15T09:02:17.979Z,18.99
2022-09-15T09:03:18.081Z,18.96
2022-09-15T09:04:18.240Z,18.51
2022-09-15T09:05:17.839Z,18.28
2022-09-15T09:06:17.837Z,18.34
2022-09-15T09:07:17.816Z,18.25
2022-09-15T09:08:17.815Z,18.29
2022-09-15T09:09:17.792Z,18.34
2022-09-15T09:10:17.837Z,18.36
2022-09-15T09:11:17.799Z,17.89
2022-09-15T09:12:17.764Z,17.47
2022-09-15T09:13:17.748Z,17.57
2022-09-15T09:14:17.756Z,17.47
2022-09-15T09:15:17.731Z,17.92
2022-09-15T09:16:17.874Z,17.58
2022-09-15T09:17:17.732Z,17.81
2022-09-15T09:18:17.695Z,17.76
2022-09-15T09:19:17.680Z,18.34
2022-09-15T09:20:17.885Z,18.04
2022-09-15T09:21:17.662Z,18.14
2022-09-15T09:22:17.649Z,18.38
2022-09-15T09:23:17.642Z,18.50
2022-09-15T09:24:17.626Z,18.60
2022-09-15T09:25:27.333Z,17.80
2022-09-15T09:26:18.773Z,17.30
2022-09-15T09:27:17.595Z,17.02
2022-09-15T09:28:17.579Z,16.87
2022-09-15T09:29:17.574Z,17.03
2022-09-15T09:30:17.566Z,16.99
2022-09-15T09:31:17.634Z,17.15
2022-09-15T09:32:21.389Z,17.24
2022-09-15T09:33:17.562Z,17.03
2022-09-15T09:34:17.517Z,16.91
2022-09-15T09:35:17.524Z,16.77
2022-09-15T09:36:17.493Z,16.82
2022-09-15T09:37:17.487Z,16.82
2022-09-15T09:38:17.486Z,16.85
2022-09-15T09:39:17.462Z,17.12
2022-09-15T09:40:17.652Z,17.20
2022-09-15T09:41:17.437Z,17.30
2022-09-15T09:42:17.428Z,17.24
2022-09-15T09:43:17.436Z,17.63
2022-09-15T09:44:17.407Z,17.95
2022-09-15T09:45:17.397Z,17.99
2022-09-15T09:46:17.414Z,17.70
2022-09-15T09:47:17.368Z,17.65
2022-09-15T09:48:17.354Z,17.35
2022-09-15T09:49:17.390Z,17.03
2022-09-15T09:50:17.354Z,16.82
2022-09-15T09:51:17.323Z,16.84
2022-09-15T09:52:21.896Z,17.00
2022-09-15T09:53:17.300Z,17.42
2022-09-15T09:54:17.289Z,18.10
2022-09-15T09:55:17.290Z,18.23
2022-09-15T09:56:17.296Z,18.29
2022-09-15T09:57:17.268Z,18.51
2022-09-15T09:58:17.248Z,18.32
2022-09-15T09:59:17.258Z,18.35
2022-09-15T10:00:17.247Z,18.36
2022-09-15T10:01:17.346Z,18.44
2022-09-15T10:02:17.217Z,18.41
2022-09-15T10:03:17.195Z,18.36
2022-09-15T10:04:17.185Z,18.38
2022-09-15T10:05:17.315Z,18.54
2022-09-15T10:06:17.171Z,18.42
2022-09-15T10:07:17.152Z,18.62
2022-09-15T10:08:17.157Z,18.87
2022-09-15T10:09:17.124Z,19.27
2022-09-15T10:10:17.128Z,19.21
2022-09-15T10:11:17.121Z,19.01
2022-09-15T10:12:17.093Z,19.07
2022-09-15T10:13:17.081Z,18.91
2022-09-15T10:14:17.079Z,18.57
2022-09-15T10:15:17.060Z,18.60
2022-09-15T10:16:17.103Z,18.51
2022-09-15T10:17:17.058Z,18.42
2022-09-15T10:18:17.027Z,18.62
2022-09-15T10:19:17.016Z,18.20
2022-09-15T10:20:17.009Z,17.96
2022-09-15T10:21:17.013Z,17.98
2022-09-15T10:22:16.982Z,17.92
2022-09-15T10:23:17.076Z,17.55
2022-09-15T10:24:18.164Z,17.24
2022-09-15T10:25:16.960Z,17.00
2022-09-15T10:26:16.997Z,16.81
2022-09-15T10:27:16.959Z,16.78
2022-09-15T10:28:16.918Z,16.57
2022-09-15T10:29:16.920Z,16.60
2022-09-15T10:30:16.892Z,16.30
2022-09-15T10:31:16.943Z,16.36
2022-09-15T10:32:16.966Z,16.13
2022-09-15T10:33:16.863Z,15.98
2022-09-15T10:34:16.855Z,15.96
2022-09-15T10:35:16.856Z,15.91
2022-09-15T10:36:16.829Z,15.89
2022-09-15T10:37:16.842Z,15.81
2022-09-15T10:38:16.817Z,15.88
2022-09-15T10:39:16.816Z,15.88
2022-09-15T10:40:16.826Z,15.92
2022-09-15T10:41:16.775Z,15.96
2022-09-15T10:42:16.762Z,16.17
2022-09-15T10:43:16.750Z,16.08
2022-09-15T10:44:16.793Z,16.22
2022-09-15T10:45:16.739Z,16.32
2022-09-15T10:46:16.818Z,16.33
2022-09-15T10:47:16.711Z,16.37
2022-09-15T10:48:16.693Z,16.36
2022-09-15T10:49:16.683Z,16.37
2022-09-15T10:50:16.753Z,16.29
2022-09-15T10:51:16.675Z,16.32
2022-09-15T10:52:16.673Z,16.26
2022-09-15T10:53:16.666Z,16.08
2022-09-15T10:54:16.637Z,16.22
2022-09-15T10:55:16.617Z,16.34
2022-09-15T10:56:16.619Z,16.55
2022-09-15T10:57:16.635Z,16.59
2022-09-15T10:58:16.583Z,16.37
2022-09-15T10:59:16.575Z,16.41
2022-09-15T11:00:16.562Z,16.41
2022-09-15T11:01:16.590Z,16.40
2022-09-15T11:02:16.654Z,16.37
2022-09-15T11:03:16.560Z,16.51
2022-09-15T11:04:16.523Z,16.69
2022-09-15T11:05:20.593Z,16.75
2022-09-15T11:06:17.497Z,16.70
2022-09-15T11:07:16.485Z,16.60
2022-09-15T11:08:16.534Z,16.59
2022-09-15T11:09:16.503Z,16.60
2022-09-15T11:10:16.450Z,16.67
2022-09-15T11:11:16.451Z,16.66
2022-09-15T11:12:16.441Z,16.73
2022-09-15T11:13:16.418Z,16.85
2022-09-15T11:14:16.410Z,16.96
2022-09-15T11:15:16.396Z,16.95
2022-09-15T11:16:16.438Z,17.09
2022-09-15T11:17:16.387Z,17.32
2022-09-15T11:18:16.413Z,17.58
2022-09-15T11:19:16.351Z,17.83
2022-09-15T11:20:16.345Z,17.99
2022-09-15T11:21:16.337Z,18.29
2022-09-15T11:22:16.317Z,17.94
2022-09-15T11:23:16.319Z,17.70
2022-09-15T11:24:16.301Z,17.35
2022-09-15T11:25:16.311Z,17.20
2022-09-15T11:26:16.275Z,17.17
2022-09-15T11:27:16.283Z,17.25
2022-09-15T11:28:16.262Z,17.24
2022-09-15T11:29:16.241Z,17.32
2022-09-15T11:30:16.285Z,17.22
2022-09-15T11:31:16.287Z,17.25
2022-09-15T11:32:16.217Z,17.17
2022-09-15T11:33:16.233Z,16.88
2022-09-15T11:34:16.182Z,17.05
2022-09-15T11:35:16.170Z,17.17
2022-09-15T11:36:16.161Z,17.14
2022-09-15T11:37:16.150Z,17.24
2022-09-15T11:38:16.181Z,17.20
2022-09-15T11:39:16.133Z,17.30
2022-09-15T11:40:16.189Z,17.07
2022-09-15T11:41:16.128Z,17.07
2022-09-15T11:42:16.093Z,16.99
2022-09-15T11:43:16.087Z,16.87
2022-09-15T11:44:17.063Z,16.92
2022-09-15T11:45:16.062Z,16.96
2022-09-15T11:46:16.111Z,17.05
2022-09-15T11:47:16.034Z,16.96
2022-09-15T11:48:16.028Z,17.12
2022-09-15T11:49:16.015Z,17.24
2022-09-15T11:50:16.024Z,17.28
2022-09-15T11:51:15.995Z,17.36
2022-09-15T11:52:15.984Z,17.28
2022-09-15T11:53:15.971Z,17.40
2022-09-15T11:54:15.962Z,17.47
2022-09-15T11:55:15.949Z,17.58
2022-09-15T11:56:16.017Z,17.54
2022-09-15T11:57:15.954Z,17.94
2022-09-15T11:58:21.034Z,18.11
2022-09-15T11:59:16.902Z,18.05
2022-09-15T12:00:15.906Z,17.96
2022-09-15T12:01:15.899Z,18.02
2022-09-15T12:02:15.992Z,17.83
2022-09-15T12:03:15.973Z,17.81
2022-09-15T12:04:15.846Z,17.47
2022-09-15T12:05:15.835Z,17.03
2022-09-15T12:06:15.832Z,17.15
2022-09-15T12:07:15.816Z,17.21
2022-09-15T12:08:15.805Z,17.73
2022-09-15T12:09:15.792Z,18.01
2022-09-15T12:10:15.781Z,18.42
2022-09-15T12:11:15.777Z,18.64
2022-09-15T12:12:15.754Z,18.68
2022-09-15T12:13:15.769Z,18.46
2022-09-15T12:14:15.861Z,18.31
2022-09-15T12:15:15.727Z,18.76
2022-09-15T12:16:15.788Z,19.12
2022-09-15T12:17:15.701Z,19.17
2022-09-15T12:18:34.363Z,18.56
2022-09-15T12:19:16.678Z,18.47
2022-09-15T12:20:15.678Z,18.21
2022-09-15T12:21:15.663Z,18.09
2022-09-15T12:22:15.656Z,17.83
2022-09-15T12:23:15.632Z,17.84
2022-09-15T12:24:15.624Z,17.80
2022-09-15T12:25:15.615Z,17.77
2022-09-15T12:26:15.626Z,17.76
2022-09-15T12:27:15.588Z,17.84
2022-09-15T12:28:15.576Z,17.84
2022-09-15T12:29:15.592Z,17.77
2022-09-15T12:30:15.554Z,17.76
2022-09-15T12:31:15.621Z,17.63
2022-09-15T12:32:15.592Z,17.60
2022-09-15T12:33:15.522Z,17.46
2022-09-15T12:34:15.511Z,17.21
2022-09-15T12:35:15.505Z,17.12
2022-09-15T12:36:15.491Z,16.98
2022-09-15T12:37:15.491Z,17.09
2022-09-15T12:38:15.471Z,17.21
2022-09-15T12:39:15.460Z,17.10
2022-09-15T12:40:15.468Z,17.17
2022-09-15T12:41:15.432Z,17.27
2022-09-15T12:42:15.436Z,17.40
2022-09-15T12:43:15.413Z,17.54
2022-09-15T12:44:15.427Z,17.53
2022-09-15T12:45:15.421Z,17.40
2022-09-15T12:46:15.461Z,17.38
2022-09-15T12:47:15.367Z,17.42
2022-09-15T12:48:15.355Z,17.33
2022-09-15T12:49:15.346Z,17.40
2022-09-15T12:50:15.353Z,17.24
2022-09-15T12:51:15.336Z,17.27
2022-09-15T12:52:15.309Z,17.39